createdAt,value
2023-01-13T00:01:29.151Z,0.45
2023-01-13T00:03:57.604Z,0.38
2023-01-13T00:06:26.914Z,1.15
2023-01-13T00:08:55.259Z,0.57
2023-01-13T00:11:26.071Z,0.60
2023-01-13T00:13:53.938Z,1.75
2023-01-13T00:16:22.257Z,0.60
2023-01-13T00:18:51.404Z,0.30
2023-01-13T00:21:21.029Z,0.20
2023-01-13T00:23:49.627Z,0.30
2023-01-13T00:26:19.766Z,0.22
2023-01-13T00:28:49.670Z,0.20
2023-01-13T00:31:19.436Z,1.15
2023-01-13T00:33:48.946Z,0.63
2023-01-13T00:36:18.459Z,0.98
2023-01-13T00:38:47.781Z,1.15
2023-01-13T00:41:17.809Z,0.50
2023-01-13T00:43:44.957Z,0.32
2023-01-13T00:46:15.520Z,0.40
2023-01-13T00:48:44.070Z,0.32
2023-01-13T00:51:14.903Z,1.95
2023-01-13T00:53:45.246Z,3.00
2023-01-13T00:56:16.676Z,2.47
2023-01-13T00:58:46.585Z,1.73
2023-01-13T01:01:20.299Z,1.92
2023-01-13T01:03:48.797Z,0.82
2023-01-13T01:06:18.598Z,0.57
2023-01-13T01:08:46.667Z,0.93
2023-01-13T01:11:17.209Z,1.80
2023-01-13T01:13:45.665Z,0.25
2023-01-13T01:16:16.699Z,0.13
2023-01-13T01:18:46.933Z,0.38
2023-01-13T01:21:16.443Z,0.38
2023-01-13T01:23:44.503Z,0.40
2023-01-13T01:26:15.077Z,1.20
2023-01-13T01:28:43.948Z,0.20
2023-01-13T01:31:17.403Z,0.35
2023-01-13T01:33:46.439Z,0.88
2023-01-13T01:36:16.588Z,0.20
2023-01-13T01:38:51.384Z,0.15
2023-01-13T01:41:21.344Z,0.20
2023-01-13T01:43:59.723Z,0.90
2023-01-13T01:46:31.384Z,0.28
2023-01-13T01:49:06.602Z,2.20
2023-01-13T01:51:38.329Z,0.85
2023-01-13T01:54:10.317Z,0.40
2023-01-13T01:56:39.759Z,0.25
2023-01-13T01:59:07.724Z,0.32
2023-01-13T02:01:38.882Z,0.80
2023-01-13T02:04:13.883Z,0.10
2023-01-13T02:06:43.293Z,1.17
2023-01-13T02:09:11.673Z,0.50
2023-01-13T02:11:57.191Z,0.22
2023-01-13T02:14:29.410Z,0.32
2023-01-13T02:17:11.706Z,0.17
2023-01-13T02:20:16.267Z,0.75
2023-01-13T02:23:04.012Z,1.42
2023-01-13T02:26:01.267Z,1.17
2023-01-13T02:29:07.160Z,0.10
2023-01-13T02:31:42.331Z,0.20
2023-01-13T02:34:13.004Z,1.15
2023-01-13T02:36:51.270Z,0.30
2023-01-13T02:39:25.301Z,1.10
2023-01-13T02:42:15.243Z,1.00
2023-01-13T02:44:48.869Z,0.50
2023-01-13T02:47:22.988Z,1.02
2023-01-13T02:49:54.299Z,0.13
2023-01-13T02:52:26.907Z,0.28
2023-01-13T02:57:27.459Z,0.40
2023-01-13T02:59:56.694Z,0.98
2023-01-13T03:02:27.089Z,0.25
2023-01-13T03:04:58.159Z,0.28
2023-01-13T03:08:18.379Z,0.00
2023-01-13T03:10:56.059Z,3.63
2023-01-13T03:13:46.188Z,0.20
2023-01-13T03:16:24.350Z,0.10
2023-01-13T03:19:08.128Z,0.98
2023-01-13T03:21:41.583Z,0.10
2023-01-13T03:24:14.923Z,0.10
2023-01-13T03:26:49.426Z,0.20
2023-01-13T03:29:22.209Z,0.75
2023-01-13T03:31:57.432Z,0.10
2023-01-13T03:34:32.724Z,0.80
2023-01-13T03:37:04.913Z,0.30
2023-01-13T03:39:37.225Z,0.60
2023-01-13T03:42:10.024Z,0.43
2023-01-13T03:44:42.280Z,0.10
2023-01-13T03:47:19.099Z,0.10
2023-01-13T03:49:54.452Z,1.65
2023-01-13T03:52:26.304Z,0.20
2023-01-13T03:54:59.025Z,1.10
2023-01-13T04:00:04.097Z,0.38
2023-01-13T04:02:48.868Z,0.10
2023-01-13T04:05:19.533Z,0.20
2023-01-13T04:07:53.981Z,1.55
2023-01-13T04:10:28.662Z,0.50
2023-01-13T04:13:01.704Z,0.28
2023-01-13T04:15:34.409Z,1.23
2023-01-13T04:18:15.189Z,2.10
2023-01-13T04:20:46.242Z,0.63
2023-01-13T04:23:14.551Z,3.58
2023-01-13T04:25:43.090Z,1.88
2023-01-13T04:28:11.448Z,1.38
2023-01-13T04:30:40.167Z,1.65
2023-01-13T04:33:08.522Z,0.73
2023-01-13T04:35:37.438Z,1.65
2023-01-13T04:38:09.010Z,2.47
2023-01-13T04:40:36.900Z,2.95
2023-01-13T04:43:05.032Z,0.52
2023-01-13T04:45:33.349Z,0.55
2023-01-13T04:48:01.362Z,0.77
2023-01-13T04:50:29.508Z,0.28
2023-01-13T04:52:57.889Z,0.10
2023-01-13T04:55:27.089Z,1.58
2023-01-13T04:57:55.049Z,0.30
2023-01-13T05:00:24.099Z,1.55
2023-01-13T05:02:52.446Z,3.15
2023-01-13T05:05:20.363Z,2.45
2023-01-13T05:07:48.206Z,0.38
2023-01-13T05:10:16.714Z,2.60
2023-01-13T05:13:04.315Z,2.67
2023-01-13T05:15:50.131Z,1.15
2023-01-13T05:18:19.099Z,1.08
2023-01-13T05:20:47.067Z,2.78
2023-01-13T05:23:32.555Z,1.00
2023-01-13T05:26:00.489Z,4.45
2023-01-13T05:28:34.186Z,2.00
2023-01-13T05:31:02.657Z,2.97
2023-01-13T05:33:30.531Z,5.60
2023-01-13T05:36:03.910Z,1.52
2023-01-13T05:38:34.862Z,1.17
2023-01-13T05:44:15.458Z,5.15
2023-01-13T05:46:43.422Z,0.43
2023-01-13T05:49:11.241Z,1.52
2023-01-13T05:51:39.045Z,3.53
2023-01-13T05:54:06.922Z,0.47
2023-01-13T05:56:35.076Z,2.78
2023-01-13T05:59:02.891Z,1.63
2023-01-13T06:01:32.055Z,3.10
2023-01-13T06:03:59.916Z,1.70
2023-01-13T06:06:27.675Z,1.40
2023-01-13T06:08:55.571Z,1.67
2023-01-13T06:11:23.408Z,3.33
2023-01-13T06:13:51.170Z,4.90
2023-01-13T06:16:19.089Z,0.63
2023-01-13T06:18:48.310Z,2.95
2023-01-13T06:21:16.308Z,4.75
2023-01-13T06:23:44.097Z,1.63
2023-01-13T06:26:17.674Z,2.22
2023-01-13T06:28:45.487Z,5.60
2023-01-13T06:31:13.656Z,1.25
2023-01-13T06:33:46.213Z,1.65
2023-01-13T06:36:22.285Z,2.10
2023-01-13T06:38:54.522Z,1.48
2023-01-13T06:41:42.970Z,1.48
2023-01-13T06:44:10.575Z,1.85
2023-01-13T06:46:38.705Z,1.08
2023-01-13T06:49:07.626Z,6.65
2023-01-13T06:51:36.909Z,1.20
2023-01-13T06:54:05.153Z,2.05
2023-01-13T06:56:32.981Z,0.82
2023-01-13T07:01:53.301Z,2.23
2023-01-13T07:04:21.442Z,2.28
2023-01-13T07:06:50.548Z,1.08
2023-01-13T07:09:18.406Z,4.32
2023-01-13T07:11:46.769Z,1.85
2023-01-13T07:14:32.466Z,3.80
2023-01-13T07:17:00.391Z,4.35
2023-01-13T07:19:28.129Z,5.95
2023-01-13T07:21:57.334Z,3.25
2023-01-13T07:24:25.257Z,2.20
2023-01-13T07:26:53.418Z,6.35
2023-01-13T07:29:21.313Z,2.65
2023-01-13T07:31:50.206Z,2.75
2023-01-13T07:34:18.288Z,2.60
2023-01-13T07:36:46.288Z,5.18
2023-01-13T07:39:15.676Z,2.38
2023-01-13T07:42:00.968Z,3.72
2023-01-13T07:44:29.195Z,2.20
2023-01-13T07:46:56.945Z,3.50
2023-01-13T07:49:24.767Z,3.58
2023-01-13T07:51:52.619Z,3.60
2023-01-13T07:54:35.199Z,8.50
2023-01-13T07:57:07.917Z,5.35
2023-01-13T07:59:35.653Z,6.47
2023-01-13T08:02:03.604Z,4.25
2023-01-13T08:04:31.621Z,6.07
2023-01-13T08:06:59.413Z,4.50
2023-01-13T08:09:28.724Z,4.18
2023-01-13T08:12:17.121Z,3.65
2023-01-13T08:14:45.185Z,3.45
2023-01-13T08:17:12.948Z,11.95
2023-01-13T08:19:40.802Z,7.65
2023-01-13T08:22:08.611Z,3.05
2023-01-13T08:24:37.930Z,8.13
2023-01-13T08:27:05.750Z,4.38
2023-01-13T08:29:33.664Z,3.80
2023-01-13T08:32:01.437Z,6.70
2023-01-13T08:34:29.312Z,4.00
2023-01-13T08:36:57.176Z,4.43
2023-01-13T08:39:25.777Z,5.65
2023-01-13T08:41:58.548Z,7.72
2023-01-13T08:44:28.148Z,4.60
2023-01-13T08:46:56.613Z,3.15
2023-01-13T08:49:25.946Z,2.47
2023-01-13T08:51:54.219Z,6.18
2023-01-13T08:54:22.146Z,4.72
2023-01-13T08:56:49.965Z,3.85
2023-01-13T08:59:21.362Z,11.57
2023-01-13T09:01:49.465Z,4.90
2023-01-13T09:04:20.507Z,5.25
2023-01-13T09:06:49.046Z,5.68
2023-01-13T09:09:16.956Z,6.10
2023-01-13T09:12:04.872Z,4.65
2023-01-13T09:14:36.322Z,5.18
2023-01-13T09:19:56.448Z,4.37
2023-01-13T09:22:27.026Z,2.45
2023-01-13T09:24:55.653Z,5.40
2023-01-13T09:27:23.976Z,6.97
2023-01-13T09:29:53.170Z,2.95
2023-01-13T09:32:21.023Z,5.53
2023-01-13T09:35:00.498Z,2.90
2023-01-13T09:37:29.725Z,8.43
2023-01-13T09:39:57.906Z,8.02
2023-01-13T09:42:51.093Z,8.43
2023-01-13T09:45:23.689Z,5.55
2023-01-13T09:50:30.665Z,5.22
2023-01-13T09:55:52.956Z,5.35
2023-01-13T09:58:21.024Z,5.22
2023-01-13T10:01:03.621Z,7.72
2023-01-13T10:03:33.987Z,6.95
2023-01-13T10:06:06.792Z,9.05
2023-01-13T10:11:50.310Z,3.63
2023-01-13T10:14:20.731Z,4.55
2023-01-13T10:16:58.072Z,3.30
2023-01-13T10:19:30.971Z,3.88
2023-01-13T10:22:21.856Z,3.38
2023-01-13T10:25:06.255Z,2.92
2023-01-13T10:27:35.997Z,6.78
2023-01-13T10:30:19.784Z,5.20
2023-01-13T10:32:53.516Z,4.00
2023-01-13T10:35:49.263Z,6.57
2023-01-13T10:38:18.851Z,5.05
2023-01-13T10:40:51.682Z,8.57
2023-01-13T10:43:19.603Z,5.50
2023-01-13T10:46:11.769Z,4.75
2023-01-13T10:48:43.636Z,6.53
2023-01-13T10:51:19.369Z,6.28
2023-01-13T10:53:51.837Z,6.13
2023-01-13T10:56:21.834Z,5.18
2023-01-13T10:58:49.866Z,3.90
2023-01-13T11:01:30.655Z,8.02
2023-01-13T11:03:59.938Z,3.50
2023-01-13T11:06:31.053Z,6.95
2023-01-13T11:08:59.459Z,3.10
2023-01-13T11:11:39.085Z,6.13
2023-01-13T11:14:36.887Z,14.48
2023-01-13T11:17:12.767Z,3.85
2023-01-13T11:19:49.808Z,6.85
2023-01-13T11:22:21.895Z,9.25
2023-01-13T11:24:54.403Z,10.20
2023-01-13T11:27:31.250Z,8.18
2023-01-13T11:30:10.122Z,7.95
2023-01-13T11:32:45.103Z,7.65
2023-01-13T11:35:44.956Z,7.85
2023-01-13T11:38:21.105Z,3.40
2023-01-13T11:40:51.838Z,3.50
2023-01-13T11:43:29.709Z,5.72
2023-01-13T11:46:02.799Z,9.40
2023-01-13T11:48:36.748Z,6.72
2023-01-13T11:51:12.825Z,5.43
2023-01-13T11:53:59.232Z,5.93
2023-01-13T11:56:48.864Z,7.82
2023-01-13T11:59:38.992Z,7.10
2023-01-13T12:02:22.975Z,5.63
2023-01-13T12:05:04.596Z,9.02
2023-01-13T12:07:45.070Z,5.07
2023-01-13T12:10:23.970Z,3.72
2023-01-13T12:13:00.154Z,5.50
2023-01-13T12:15:57.219Z,6.40
2023-01-13T12:18:56.747Z,5.18
2023-01-13T12:21:27.573Z,4.60
2023-01-13T12:24:13.303Z,7.18
2023-01-13T12:26:47.517Z,2.67
2023-01-13T12:29:19.080Z,5.88
2023-01-13T12:31:48.983Z,9.13
2023-01-13T12:34:39.979Z,4.28
2023-01-13T12:37:13.047Z,11.05
2023-01-13T12:39:52.624Z,7.60
2023-01-13T12:42:43.484Z,5.90
2023-01-13T12:45:25.911Z,13.80
2023-01-13T12:47:54.512Z,9.57
2023-01-13T12:50:41.761Z,7.78
2023-01-13T12:53:39.361Z,3.75
2023-01-13T12:56:32.529Z,7.30
2023-01-13T12:59:37.151Z,6.28
2023-01-13T13:02:28.826Z,7.22
2023-01-13T13:04:58.479Z,4.88
2023-01-13T13:07:42.532Z,8.70
2023-01-13T13:10:19.625Z,4.78
2023-01-13T13:13:29.537Z,13.45
2023-01-13T13:16:37.241Z,13.30
2023-01-13T13:19:43.254Z,7.53
2023-01-13T13:22:39.032Z,5.25
2023-01-13T13:25:26.098Z,11.00
2023-01-13T13:28:20.137Z,4.82
2023-01-13T13:31:05.150Z,8.75
2023-01-13T13:33:47.010Z,4.90
2023-01-13T13:36:33.176Z,12.50
2023-01-13T13:39:31.780Z,6.43
2023-01-13T13:42:23.131Z,7.45
2023-01-13T13:45:10.314Z,9.95
2023-01-13T13:47:39.588Z,5.68
2023-01-13T13:50:10.474Z,9.40
2023-01-13T13:52:42.620Z,10.45
2023-01-13T13:55:18.650Z,7.43
2023-01-13T13:57:48.886Z,7.43
2023-01-13T14:00:30.452Z,6.82
2023-01-13T14:03:01.531Z,9.27
2023-01-13T14:05:31.068Z,11.25
2023-01-13T14:08:04.066Z,5.55
2023-01-13T14:10:35.170Z,9.55
2023-01-13T14:13:13.963Z,6.45
2023-01-13T14:15:43.454Z,6.93
2023-01-13T14:18:14.681Z,7.10
2023-01-13T14:20:43.179Z,8.80
2023-01-13T14:23:17.673Z,8.98
2023-01-13T14:25:48.692Z,11.20
2023-01-13T14:28:25.216Z,13.60
2023-01-13T14:30:55.745Z,14.05
2023-01-13T14:33:32.605Z,8.88
2023-01-13T14:36:22.166Z,16.80
2023-01-13T14:38:51.701Z,11.13
2023-01-13T14:41:23.641Z,9.15
2023-01-13T14:43:54.192Z,7.20
2023-01-13T14:46:25.631Z,8.57
2023-01-13T14:49:00.952Z,12.10
2023-01-13T14:51:31.454Z,6.10
2023-01-13T14:53:59.801Z,12.23
2023-01-13T14:56:51.398Z,10.93
2023-01-13T14:59:59.287Z,11.43
2023-01-13T15:02:49.948Z,7.00
2023-01-13T15:05:49.468Z,7.93
2023-01-13T15:08:37.881Z,7.65
2023-01-13T15:11:08.496Z,10.07
2023-01-13T15:13:53.015Z,13.38
2023-01-13T15:16:25.111Z,12.45
2023-01-13T15:18:55.224Z,11.60
2023-01-13T15:21:24.167Z,10.43
2023-01-13T15:23:52.030Z,6.25
2023-01-13T15:26:22.963Z,9.50
2023-01-13T15:28:51.541Z,7.75
2023-01-13T15:31:19.918Z,15.05
2023-01-13T15:33:48.174Z,8.52
2023-01-13T15:36:25.713Z,3.17
2023-01-13T15:38:54.190Z,7.78
2023-01-13T15:41:42.786Z,4.85
2023-01-13T15:44:30.293Z,5.88
2023-01-13T15:47:00.009Z,9.85
2023-01-13T15:49:34.926Z,11.75
2023-01-13T15:52:05.640Z,4.93
2023-01-13T15:54:33.507Z,6.95
2023-01-13T15:57:01.998Z,5.97
2023-01-13T15:59:29.907Z,5.93
2023-01-13T16:01:57.877Z,6.63
2023-01-13T16:04:28.874Z,5.07
2023-01-13T16:06:56.898Z,5.03
2023-01-13T16:09:26.085Z,6.35
2023-01-13T16:11:53.942Z,4.45
2023-01-13T16:14:21.733Z,5.25
2023-01-13T16:16:49.572Z,3.28
2023-01-13T16:19:17.411Z,4.43
2023-01-13T16:21:45.311Z,5.00
2023-01-13T16:24:13.112Z,6.53
2023-01-13T16:26:42.437Z,9.63
2023-01-13T16:29:12.591Z,5.30
2023-01-13T16:31:40.537Z,11.65
2023-01-13T16:34:08.397Z,5.40
2023-01-13T16:36:37.599Z,7.20
2023-01-13T16:39:06.367Z,4.78
2023-01-13T16:41:34.678Z,5.25
2023-01-13T16:44:06.149Z,4.50
2023-01-13T16:46:34.924Z,4.82
2023-01-13T16:49:04.772Z,4.32
2023-01-13T16:51:33.271Z,3.53
2023-01-13T16:54:01.245Z,12.27
2023-01-13T16:56:31.360Z,4.20
2023-01-13T16:59:02.493Z,6.25
2023-01-13T17:01:33.941Z,13.98
2023-01-13T17:04:02.796Z,32.13
2023-01-13T17:09:31.004Z,7.60
2023-01-13T17:11:59.951Z,5.70
2023-01-13T17:14:27.813Z,7.10
2023-01-13T17:17:00.509Z,5.45
2023-01-13T17:19:28.936Z,5.93
2023-01-13T17:21:56.727Z,5.85
2023-01-13T17:24:25.878Z,5.18
2023-01-13T17:26:53.733Z,6.30
2023-01-13T17:29:25.191Z,7.18
2023-01-13T17:31:53.493Z,4.53
2023-01-13T17:34:23.078Z,6.97
2023-01-13T17:36:50.908Z,6.90
2023-01-13T17:39:20.498Z,5.82
2023-01-13T17:41:49.613Z,5.70
2023-01-13T17:44:18.452Z,5.35
2023-01-13T17:46:46.620Z,6.63
2023-01-13T17:49:15.858Z,5.13
2023-01-13T17:51:48.022Z,7.25
2023-01-13T17:54:16.405Z,2.55
2023-01-13T17:56:44.800Z,6.65
2023-01-13T17:59:14.558Z,6.60
2023-01-13T18:01:42.945Z,4.20
2023-01-13T18:04:15.956Z,4.65
2023-01-13T18:06:45.904Z,7.43
2023-01-13T18:09:13.809Z,4.18
2023-01-13T18:11:43.773Z,8.20
2023-01-13T18:14:12.390Z,4.80
2023-01-13T18:16:40.447Z,7.10
2023-01-13T18:19:26.273Z,5.63
2023-01-13T18:22:12.721Z,4.32
2023-01-13T18:24:58.155Z,5.55
2023-01-13T18:27:29.871Z,5.20
2023-01-13T18:30:00.128Z,6.53
2023-01-13T18:32:32.791Z,6.43
2023-01-13T18:35:06.105Z,5.10
2023-01-13T18:37:38.600Z,4.38
2023-01-13T18:40:09.571Z,6.43
2023-01-13T18:42:54.011Z,7.55
2023-01-13T18:45:25.491Z,4.38
2023-01-13T18:47:54.007Z,3.90
2023-01-13T18:50:22.414Z,8.65
2023-01-13T18:52:51.933Z,5.45
2023-01-13T18:55:19.870Z,4.90
2023-01-13T18:57:47.751Z,3.88
2023-01-13T19:00:18.932Z,3.78
2023-01-13T19:02:48.236Z,11.60
2023-01-13T19:05:16.024Z,5.38
2023-01-13T19:07:50.544Z,7.18
2023-01-13T19:10:20.331Z,5.55
2023-01-13T19:12:48.622Z,7.75
2023-01-13T19:15:17.092Z,3.88
2023-01-13T19:17:45.598Z,4.55
2023-01-13T19:20:13.919Z,7.20
2023-01-13T19:22:41.928Z,4.78
2023-01-13T19:25:09.964Z,3.70
2023-01-13T19:27:39.842Z,6.30
2023-01-13T19:30:09.557Z,7.50
2023-01-13T19:32:37.343Z,5.35
2023-01-13T19:35:05.867Z,4.82
2023-01-13T19:37:34.306Z,3.40
2023-01-13T19:43:15.984Z,7.63
2023-01-13T19:45:44.904Z,3.00
2023-01-13T19:48:15.985Z,9.07
2023-01-13T19:50:43.904Z,5.78
2023-01-13T19:53:17.656Z,4.93
2023-01-13T19:55:48.547Z,8.95
2023-01-13T19:58:19.795Z,3.33
2023-01-13T20:00:48.563Z,4.85
2023-01-13T20:03:17.363Z,3.42
2023-01-13T20:05:45.539Z,6.93
2023-01-13T20:08:13.346Z,4.80
2023-01-13T20:10:42.819Z,4.93
2023-01-13T20:13:10.734Z,1.65
2023-01-13T20:15:40.896Z,4.10
2023-01-13T20:18:09.567Z,1.50
2023-01-13T20:20:37.972Z,4.43
2023-01-13T20:23:05.945Z,2.70
2023-01-13T20:25:33.749Z,4.82
2023-01-13T20:28:02.253Z,5.40
2023-01-13T20:30:30.164Z,3.60
2023-01-13T20:32:59.367Z,2.25
2023-01-13T20:35:29.670Z,3.25
2023-01-13T20:37:57.841Z,3.42
2023-01-13T20:40:25.977Z,4.35
2023-01-13T20:42:52.837Z,1.90
2023-01-13T20:45:22.592Z,3.17
2023-01-13T20:47:50.500Z,2.67
2023-01-13T20:50:19.757Z,3.00
2023-01-13T20:52:47.938Z,2.95
2023-01-13T20:55:16.396Z,2.55
2023-01-13T20:57:48.403Z,4.45
2023-01-13T21:00:17.735Z,4.35
2023-01-13T21:02:45.628Z,7.05
2023-01-13T21:05:13.642Z,6.35
2023-01-13T21:07:42.776Z,4.65
2023-01-13T21:10:12.352Z,7.20
2023-01-13T21:12:57.749Z,2.72
2023-01-13T21:15:27.445Z,3.83
2023-01-13T21:18:12.912Z,4.32
2023-01-13T21:20:41.026Z,6.18
2023-01-13T21:23:11.587Z,6.50
2023-01-13T21:25:40.389Z,5.97
2023-01-13T21:28:12.106Z,7.00
2023-01-13T21:30:40.532Z,4.95
2023-01-13T21:33:08.925Z,10.02
2023-01-13T21:35:39.292Z,5.40
2023-01-13T21:38:07.373Z,3.70
2023-01-13T21:40:36.549Z,7.03
2023-01-13T21:43:22.219Z,3.47
2023-01-13T21:46:07.702Z,9.50
2023-01-13T21:48:35.720Z,6.97
2023-01-13T21:51:03.471Z,9.25
2023-01-13T21:53:31.342Z,8.23
2023-01-13T21:56:00.548Z,4.07
2023-01-13T21:58:28.405Z,2.33
2023-01-13T22:00:56.453Z,4.88
2023-01-13T22:03:24.563Z,2.35
2023-01-13T22:05:56.532Z,1.60
2023-01-13T22:08:24.396Z,8.13
2023-01-13T22:10:57.800Z,11.60
2023-01-13T22:13:45.096Z,6.13
2023-01-13T22:20:26.386Z,4.85
2023-01-13T22:22:54.429Z,4.63
2023-01-13T22:25:22.517Z,12.02
2023-01-13T22:27:50.599Z,4.38
2023-01-13T22:30:21.861Z,5.03
2023-01-13T22:32:50.327Z,3.60
2023-01-13T22:35:18.344Z,8.35
2023-01-13T22:37:46.386Z,3.67
2023-01-13T22:40:14.638Z,5.97
2023-01-13T22:42:43.825Z,5.95
2023-01-13T22:45:14.043Z,5.82
2023-01-13T22:47:43.372Z,4.15
2023-01-13T22:50:12.818Z,6.65
2023-01-13T22:52:40.762Z,6.22
2023-01-13T22:55:09.889Z,6.20
2023-01-13T22:57:47.309Z,5.78
2023-01-13T23:00:19.356Z,3.00
2023-01-13T23:06:37.348Z,8.05
2023-01-13T23:09:05.393Z,3.13
2023-01-13T23:11:33.677Z,5.38
2023-01-13T23:14:03.540Z,7.38
2023-01-13T23:16:34.148Z,7.85
2023-01-13T23:19:02.267Z,4.90
2023-01-13T23:21:31.835Z,4.88
2023-01-13T23:24:01.289Z,7.78
2023-01-13T23:26:30.681Z,9.35
2023-01-13T23:29:02.937Z,6.65
2023-01-13T23:31:30.970Z,6.45
2023-01-13T23:33:59.335Z,6.28
2023-01-13T23:36:28.711Z,5.03
2023-01-13T23:38:58.091Z,5.88
2023-01-13T23:41:28.890Z,5.13
2023-01-13T23:43:58.482Z,13.13
2023-01-13T23:46:27.386Z,6.32
2023-01-13T23:48:56.100Z,5.30
2023-01-13T23:51:26.069Z,11.10
2023-01-13T23:53:54.146Z,6.60
2023-01-13T23:56:24.300Z,13.43
2023-01-13T23:58:53.655Z,5.10
